x

Fripp Nearshore (frp 2) (41033) Weather Station

1:08am - Sun 11th Dec 2016 All times are EST. -5 hours from GMT.

  • Wind
    20mph, 27mph gusts
  • Sea Temp 59°f
  • Air Temp 51°f
  • Sea Pressure 1030.9mb
  • Fripp Nearshore (frp 2)
  • Fripp Nearshore (frp 2)

More Historic Weather Station data

Upgrade to MSW Pro to gain access to the past 30 days of data for over 8000 Wavebouys and Weather Stations around the globe.

Join Pro

Comparision Forecast

View Surf forecast
   
Sun 12/11 1:08am 20 27 mph 1030.9mb 59f 51f
12:08am 20 25 mph 1031.5mb 58f 51f
Sat 12/10 11:08pm 20 25 mph 1032mb 59f 49f
10:08pm 18 25 mph 1031.9mb 58f 50f
9:08pm 13 18 mph 1031.5mb 58f 51f
8:08pm 13 18 mph 1031.4mb 60f 51f
7:08pm 13 20 mph 1031.3mb 60f 51f
6:08pm 11 18 mph 1031.3mb 60f 50f
5:08pm 11 16 mph 1031.2mb 60f 50f
4:08pm 11 18 mph 1031.3mb 60f 50f
3:08pm 11 18 mph 1031.1mb 60f 49f
2:08pm 13 18 mph 1031.5mb 60f 48f
1:08pm 16 18 mph 1032.1mb 59f 48f
12:08pm 16 20 mph 1032.8mb 59f 47f
11:08am 16 22 mph 1033.6mb 58f 47f
10:08am 18 25 mph 1033.9mb 59f 47f
9:08am 18 22 mph 1033.6mb 59f 47f
8:08am 18 25 mph 1033.1mb 59f 46f
7:08am 16 22 mph 1032.3mb 60f 46f
6:08am 16 22 mph 1032.1mb 60f 46f
5:08am 18 25 mph 1031.8mb 60f 47f
4:08am 18 22 mph 1031.5mb 60f 47f
3:08am 18 25 mph 1031.3mb 60f 46f
2:08am 18 25 mph 1031.1mb 60f 46f
1:08am 18 25 mph 1030.9mb 60f 46f
12:08am 16 22 mph 1030.7mb 59f 47f
Fri 12/09 11:08pm 18 25 mph 1030.6mb 60f 47f
10:08pm 16 22 mph 1030.8mb 60f 48f
9:08pm 16 20 mph 1031.1mb 60f 48f
8:08pm 16 20 mph 1030.6mb 60f 48f
7:08pm 13 18 mph 1030.3mb 60f 49f
6:08pm 13 18 mph 1029.6mb 61f 49f
5:08pm 11 18 mph 1028.4mb 61f 50f
4:08pm 11 16 mph 1027.9mb 61f 51f
3:08pm 13 18 mph 1027.7mb 61f 50f
2:08pm 11 16 mph 1027.3mb 61f 49f
1:08pm 11 16 mph 1028.3mb 60f 47f
12:08pm 11 18 mph 1028.8mb 60f 46f
11:08am 16 20 mph 1029.6mb 60f 46f
10:08am 16 20 mph 1030.1mb 60f 45f
9:08am 18 22 mph 1029.6mb 60f 45f
8:08am 18 25 mph 1028.8mb 61f 46f
7:08am 18 25 mph 1028mb 61f 46f
6:08am 20 27 mph 1027mb 61f 47f
5:08am 18 22 mph 1026mb 61f 48f
4:08am 20 25 mph 1025.2mb 61f 49f
3:08am 18 25 mph 1024.7mb 61f 50f
2:08am 18 22 mph 1024.6mb 62f 50f
1:08am 18 22 mph 1024.6mb 62f 51f
12:08am 20 25 mph 1024.5mb 62f 52f
Thu 12/08 11:08pm 20 25 mph 1024.3mb 62f 53f
10:08pm 22 29 mph 1023.7mb 62f 55f
9:08pm 13 20 mph 1023mb 62f 57f
8:08pm 11 16 mph 1023mb 61f 58f
7:08pm 16 18 mph 1021.8mb 62f 59f
6:08pm 11 13 mph 1021.2mb 62f 60f
5:08pm 16 20 mph 1020.3mb 62f 61f
4:08pm 16 20 mph 1019.4mb 62f 62f
3:08pm 11 16 mph 1018.5mb 62f 63f
2:08pm 11 16 mph 1018.1mb 62f 61f
1:08pm 11 16 mph 1018.2mb 62f 60f
12:08pm 11 16 mph 1019mb 62f 59f
11:08am 11 16 mph 1019.7mb 62f 57f
10:08am 13 20 mph 1020.3mb 62f 56f
9:08am 16 20 mph 1020mb 61f 55f
8:08am 18 22 mph 1019.6mb 61f 56f
7:08am 16 18 mph 1018.9mb 61f 57f
6:08am 11 16 mph 1018.4mb 62f 58f
5:08am 9 13 mph 1017.9mb 61f 58f
4:08am 11 13 mph 1017.8mb 62f 59f
3:08am 4 7 mph 1017.8mb 62f 61f
2:08am 4
mph
1017.7mb 62f 61f
1:08am 4
mph
1017.8mb 62f 61f
12:08am 2 4 mph 1018.3mb 62f 61f
Wed 12/07 11:08pm 7 9 mph 1018.5mb 62f 61f
10:08pm 7 9 mph 1018.6mb 62f 60f
9:08pm 4 7 mph 1018.7mb 62f 60f
8:08pm 4 7 mph 1018.6mb 62f 60f
7:08pm 7
mph
1018.3mb 62f 59f
6:08pm 7
mph
1017.7mb 62f 58f
5:08pm 7 9 mph 1017.2mb 62f 58f
4:08pm 7 9 mph 1017.1mb 62f 57f
3:08pm 7 11 mph 1017.2mb 62f 57f
2:08pm 9 11 mph 1017.1mb 62f 56f
1:08pm 7 9 mph 1017mb 62f 56f
12:08pm 4 9 mph 1017.8mb 62f 55f
11:08am 2 4 mph 1018.6mb 61f 55f
10:08am 4 9 mph 1018.6mb 61f 54f
9:08am 4 7 mph 1017.6mb 61f 54f
8:08am 4 11 mph 1017.2mb 61f 55f